Time;durP1;ratioP1;P1;durP2;ratioP2;P2;SDS_P1;SDS_P2;PMS_P1;PMS_P2;Temp;Humidity;BMP_temperature;BMP_pressure;BME280_temperature;BME280_humidity;BME280_pressure;Samples;Min_cycle;Max_cycle;Signal;HPM_P1;HPM_P2
2023/07/17 00:02:12;;;;;;;0.10;0.10;;;17.30;99.90;;;;;;4973423;28;20204;-92
2023/07/17 00:04:37;;;;;;;0.10;0.10;;;17.30;99.90;;;;;;4989794;28;20652;-91
2023/07/17 00:07:03;;;;;;;0.10;0.10;;;17.20;99.90;;;;;;4993167;28;20201;-91
2023/07/17 00:09:29;;;;;;;0.10;0.10;;;17.10;99.90;;;;;;4986478;28;20197;-91
2023/07/17 00:11:54;;;;;;;0.10;0.10;;;17.20;99.90;;;;;;4992221;28;20192;-90
2023/07/17 00:14:19;;;;;;;0.10;0.10;;;17.20;99.90;;;;;;4981841;28;20192;-91
2023/07/17 00:16:45;;;;;;;0.10;0.10;;;17.10;99.90;;;;;;4971061;28;20611;-91
2023/07/17 00:19:10;;;;;;;0.10;0.10;;;17.00;99.90;;;;;;4991794;28;20285;-90
2023/07/17 00:21:36;;;;;;;0.10;0.10;;;17.00;99.90;;;;;;4991050;28;20312;-91
2023/07/17 00:24:01;;;;;;;0.10;0.10;;;16.90;99.90;;;;;;4974751;28;20189;-91
2023/07/17 00:26:29;;;;;;;0.10;0.10;;;16.90;99.90;;;;;;4988552;28;20264;-92
2023/07/17 00:29:15;;;;;;;0.10;0.10;;;16.90;99.90;;;;;;4987864;28;20189;-91
2023/07/17 00:31:41;;;;;;;0.10;0.10;;;16.80;99.90;;;;;;4982584;28;20451;-92
2023/07/17 00:34:06;;;;;;;0.10;0.10;;;16.80;99.90;;;;;;4983482;28;20975;-91
2023/07/17 00:36:31;;;;;;;0.10;0.10;;;16.80;99.90;;;;;;4986189;28;20278;-91
2023/07/17 00:38:57;;;;;;;0.10;0.10;;;16.80;99.90;;;;;;4989333;28;20689;-92
2023/07/17 00:41:22;;;;;;;0.10;0.10;;;16.80;99.90;;;;;;4991053;28;20282;-91
2023/07/17 00:43:48;;;;;;;0.10;0.10;;;16.80;99.90;;;;;;4990007;28;20709;-90
2023/07/17 00:46:14;;;;;;;0.10;0.10;;;16.70;99.90;;;;;;4988124;28;20193;-92
2023/07/17 00:48:39;;;;;;;0.10;0.10;;;16.70;99.90;;;;;;4988248;28;20189;-91
2023/07/17 00:51:05;;;;;;;0.10;0.10;;;16.70;99.90;;;;;;4990764;28;20649;-90
2023/07/17 00:53:30;;;;;;;0.10;0.10;;;16.70;99.90;;;;;;4991881;28;20602;-91
2023/07/17 00:55:56;;;;;;;0.10;0.10;;;16.70;99.90;;;;;;4990886;28;20185;-91
2023/07/17 00:58:21;;;;;;;0.10;0.10;;;16.70;99.90;;;;;;4990032;28;20197;-91
2023/07/17 01:00:47;;;;;;;0.10;0.10;;;16.70;99.90;;;;;;4989060;28;20245;-90
2023/07/17 01:03:14;;;;;;;0.10;0.10;;;16.60;99.90;;;;;;4988142;28;20625;-91
2023/07/17 01:05:39;;;;;;;0.10;0.10;;;16.60;99.90;;;;;;4985026;28;20277;-91
2023/07/17 01:08:05;;;;;;;0.10;0.10;;;16.60;99.90;;;;;;4987599;28;20531;-91
2023/07/17 01:10:31;;;;;;;0.10;0.10;;;16.50;99.90;;;;;;4986944;28;20189;-92
2023/07/17 01:12:56;;;;;;;0.10;0.10;;;16.60;99.90;;;;;;4991516;28;20187;-91
2023/07/17 01:15:22;;;;;;;0.10;0.10;;;16.50;99.90;;;;;;4989378;28;20267;-90
2023/07/17 01:17:47;;;;;;;0.10;0.10;;;16.40;99.90;;;;;;4990184;28;20182;-91
2023/07/17 01:20:13;;;;;;;0.10;0.10;;;16.30;99.90;;;;;;4989891;28;20272;-91
2023/07/17 01:22:49;;;;;;;0.10;0.10;;;16.30;99.90;;;;;;4989903;28;20185;-91
2023/07/17 01:25:14;;;;;;;0.10;0.10;;;16.30;99.90;;;;;;4987140;28;20220;-91
2023/07/17 01:27:40;;;;;;;0.10;0.10;;;16.40;99.90;;;;;;4986514;28;20860;-92
2023/07/17 01:30:06;;;;;;;0.10;0.10;;;16.20;99.90;;;;;;4990891;28;20661;-91
2023/07/17 01:32:32;;;;;;;0.10;0.10;;;16.30;99.90;;;;;;4989104;28;20645;-91
2023/07/17 01:34:57;;;;;;;0.10;0.10;;;16.10;99.90;;;;;;4987807;28;20455;-90
2023/07/17 01:37:23;;;;;;;0.10;0.10;;;16.10;99.90;;;;;;4986359;28;20190;-90
2023/07/17 01:39:48;;;;;;;0.10;0.10;;;16.10;99.90;;;;;;4990274;28;20529;-92
2023/07/17 01:42:14;;;;;;;0.10;0.10;;;16.10;99.90;;;;;;4990418;28;20720;-91
2023/07/17 01:44:39;;;;;;;0.10;0.10;;;16.20;99.90;;;;;;4987756;28;20208;-92
2023/07/17 01:47:05;;;;;;;0.10;0.10;;;16.20;99.90;;;;;;4987255;28;20193;-90
2023/07/17 01:49:32;;;;;;;0.10;0.10;;;16.20;99.90;;;;;;4989653;28;20273;-90
2023/07/17 01:51:58;;;;;;;0.10;0.10;;;16.20;99.90;;;;;;4990843;28;20216;-91
2023/07/17 01:54:23;;;;;;;0.10;0.10;;;16.20;99.90;;;;;;4988582;28;20452;-91
2023/07/17 01:56:49;;;;;;;0.10;0.10;;;16.20;99.90;;;;;;4972037;28;20578;-90
2023/07/17 01:59:14;;;;;;;0.10;0.10;;;16.20;99.90;;;;;;4989661;28;20185;-90
2023/07/17 02:01:39;;;;;;;0.10;0.10;;;16.30;99.90;;;;;;4986227;28;20188;-90
2023/07/17 02:04:05;;;;;;;0.10;0.10;;;16.30;99.90;;;;;;4989321;28;20189;-91
2023/07/17 02:06:30;;;;;;;0.10;0.10;;;16.30;99.90;;;;;;4990739;28;20236;-90
2023/07/17 02:08:56;;;;;;;0.10;0.10;;;16.30;99.90;;;;;;4990661;28;20328;-91
2023/07/17 02:11:26;;;;;;;0.10;0.10;;;16.30;99.90;;;;;;4976742;28;20307;-92
2023/07/17 02:13:52;;;;;;;0.10;0.10;;;16.30;99.90;;;;;;4989516;28;20191;-92
2023/07/17 02:16:17;;;;;;;0.10;0.10;;;16.30;99.90;;;;;;4970663;28;20460;-91
2023/07/17 02:18:43;;;;;;;0.10;0.10;;;16.20;99.90;;;;;;4983429;28;20185;-90
2023/07/17 02:21:09;;;;;;;0.10;0.10;;;16.30;99.90;;;;;;4987312;28;20311;-91
2023/07/17 02:23:34;;;;;;;0.10;0.10;;;16.20;99.90;;;;;;4993100;28;20189;-91
2023/07/17 02:26:00;;;;;;;0.10;0.10;;;16.30;99.90;;;;;;4990835;28;20185;-92
2023/07/17 02:28:25;;;;;;;0.10;0.10;;;16.30;99.90;;;;;;4990438;28;20192;-91
2023/07/17 02:30:51;;;;;;;0.10;0.10;;;16.30;99.90;;;;;;4992586;28;20196;-91
2023/07/17 02:33:16;;;;;;;0.10;0.10;;;16.30;99.90;;;;;;4992410;28;20203;-91
2023/07/17 02:35:42;;;;;;;0.10;0.10;;;16.30;99.90;;;;;;4995124;28;20195;-92
2023/07/17 02:38:07;;;;;;;0.10;0.10;;;16.30;99.90;;;;;;4991291;28;20653;-91
2023/07/17 02:40:33;;;;;;;0.10;0.10;;;16.30;99.90;;;;;;4974824;28;20217;-91
2023/07/17 02:42:59;;;;;;;0.10;0.10;;;16.40;99.90;;;;;;4989033;28;20225;-92
2023/07/17 02:45:24;;;;;;;0.10;0.10;;;16.30;99.90;;;;;;4991681;28;20206;-93
2023/07/17 02:47:50;;;;;;;0.10;0.10;;;16.10;99.90;;;;;;4991055;28;20628;-92
2023/07/17 02:50:15;;;;;;;0.10;0.10;;;16.00;99.90;;;;;;4995630;28;20192;-92
2023/07/17 02:52:41;;;;;;;0.10;0.10;;;16.00;99.90;;;;;;4993889;28;20801;-90
2023/07/17 02:55:07;;;;;;;0.10;0.10;;;15.90;99.90;;;;;;4994074;28;20704;-92
2023/07/17 02:57:34;;;;;;;0.10;0.10;;;15.80;99.90;;;;;;4989536;28;20193;-91
2023/07/17 03:00:01;;;;;;;0.10;0.10;;;15.90;99.90;;;;;;4994700;28;20460;-91
2023/07/17 03:02:26;;;;;;;0.10;0.10;;;15.80;99.90;;;;;;4988493;28;20454;-90
2023/07/17 03:04:52;;;;;;;0.10;0.10;;;15.80;99.90;;;;;;4991518;28;20447;-90
2023/07/17 03:07:17;;;;;;;0.10;0.10;;;15.80;99.90;;;;;;4993834;28;20259;-90
2023/07/17 03:09:43;;;;;;;0.10;0.10;;;15.80;99.90;;;;;;4993320;28;20691;-89
2023/07/17 03:12:08;;;;;;;0.10;0.10;;;15.80;99.90;;;;;;4990728;28;20182;-90
2023/07/17 03:14:34;;;;;;;0.10;0.10;;;15.80;99.90;;;;;;4987258;28;20547;-90
2023/07/17 03:16:59;;;;;;;0.10;0.10;;;15.80;99.90;;;;;;4987558;28;20598;-89
2023/07/17 03:19:25;;;;;;;0.10;0.10;;;15.80;99.90;;;;;;4989551;28;20276;-90
2023/07/17 03:21:51;;;;;;;0.10;0.10;;;15.90;99.90;;;;;;4993972;28;20208;-89
2023/07/17 03:24:16;;;;;;;0.10;0.10;;;15.80;99.90;;;;;;4991269;28;20492;-89
2023/07/17 03:26:42;;;;;;;0.10;0.10;;;15.80;99.90;;;;;;4990887;28;20256;-88
2023/07/17 03:29:08;;;;;;;0.10;0.10;;;15.80;99.90;;;;;;4985701;28;20198;-89
2023/07/17 03:31:34;;;;;;;0.10;0.10;;;15.80;99.90;;;;;;4983023;28;20272;-90
2023/07/17 03:33:59;;;;;;;0.10;0.10;;;15.80;99.90;;;;;;4993242;28;20527;-89
2023/07/17 03:36:25;;;;;;;0.10;0.10;;;15.80;99.90;;;;;;4990587;28;20186;-91
2023/07/17 03:38:50;;;;;;;0.10;0.10;;;15.80;99.90;;;;;;4990749;28;20193;-91
2023/07/17 03:41:20;;;;;;;0.10;0.10;;;15.90;99.90;;;;;;4992354;28;20259;-90
2023/07/17 03:43:46;;;;;;;0.10;0.10;;;15.90;99.90;;;;;;4989795;28;20940;-91
2023/07/17 03:46:12;;;;;;;0.10;0.10;;;15.90;99.90;;;;;;4990997;28;20455;-90
2023/07/17 03:48:38;;;;;;;0.10;0.10;;;15.80;99.90;;;;;;4990617;28;20459;-89
2023/07/17 03:51:03;;;;;;;0.10;0.10;;;15.90;99.90;;;;;;4991958;28;20498;-89
2023/07/17 03:53:29;;;;;;;0.10;0.10;;;15.80;99.90;;;;;;4991680;28;20200;-90
2023/07/17 03:55:54;;;;;;;0.10;0.10;;;15.80;99.90;;;;;;4989754;28;20197;-90
2023/07/17 03:58:20;;;;;;;0.10;0.10;;;15.80;99.90;;;;;;4989474;28;20696;-89
2023/07/17 04:00:45;;;;;;;0.10;0.10;;;15.80;99.90;;;;;;4990121;28;20240;-89
2023/07/17 04:03:11;;;;;;;0.10;0.10;;;15.90;99.90;;;;;;4993069;28;20247;-90
2023/07/17 04:05:36;;;;;;;0.10;0.10;;;15.80;99.90;;;;;;4988226;28;20556;-91
2023/07/17 04:08:02;;;;;;;0.10;0.10;;;15.90;99.90;;;;;;4978585;28;20670;-87
2023/07/17 04:10:28;;;;;;;0.10;0.10;;;15.90;99.90;;;;;;4991402;28;20189;-90
2023/07/17 04:12:54;;;;;;;0.10;0.10;;;15.90;99.90;;;;;;4990511;28;20446;-91
2023/07/17 04:15:19;;;;;;;0.10;0.10;;;15.90;99.90;;;;;;4992403;28;21011;-90
2023/07/17 04:17:45;;;;;;;0.10;0.10;;;16.00;99.90;;;;;;4990375;28;20216;-91
2023/07/17 04:20:11;;;;;;;0.10;0.10;;;16.00;99.90;;;;;;4990225;28;20355;-90
2023/07/17 04:22:36;;;;;;;0.10;0.10;;;16.00;99.90;;;;;;4990881;28;20188;-91
2023/07/17 04:25:03;;;;;;;0.10;0.10;;;16.00;99.90;;;;;;4991023;28;20927;-91
2023/07/17 04:27:30;;;;;;;0.10;0.10;;;16.10;99.90;;;;;;4985634;28;20523;-91
2023/07/17 04:29:56;;;;;;;0.10;0.10;;;16.00;99.90;;;;;;4973087;28;20804;-91
2023/07/17 04:32:21;;;;;;;0.10;0.10;;;16.00;99.90;;;;;;4972913;28;20452;-88
2023/07/17 04:34:48;;;;;;;0.10;0.10;;;16.00;99.90;;;;;;4986309;28;20189;-90
2023/07/17 04:37:13;;;;;;;0.10;0.10;;;16.00;99.90;;;;;;4972266;28;20181;-89
2023/07/17 04:39:39;;;;;;;0.10;0.10;;;16.00;99.90;;;;;;4990986;28;20471;-88
2023/07/17 04:42:05;;;;;;;0.10;0.10;;;15.90;99.90;;;;;;4991767;28;20238;-88
2023/07/17 04:44:30;;;;;;;0.10;0.10;;;16.00;99.90;;;;;;4988771;28;20660;-87
2023/07/17 04:46:56;;;;;;;0.10;0.10;;;16.00;99.90;;;;;;4992638;28;20664;-87
2023/07/17 04:49:21;;;;;;;0.10;0.10;;;16.00;99.90;;;;;;4989248;28;20662;-87
2023/07/17 04:51:46;;;;;;;0.10;0.10;;;15.90;99.90;;;;;;4992431;28;20200;-87
2023/07/17 04:54:12;;;;;;;0.10;0.10;;;15.80;99.90;;;;;;4992392;28;20230;-88
2023/07/17 04:56:38;;;;;;;0.10;0.10;;;15.80;99.90;;;;;;4973511;28;20189;-87
2023/07/17 04:59:04;;;;;;;0.10;0.10;;;15.80;99.90;;;;;;4993156;28;20185;-87
2023/07/17 05:01:29;;;;;;;0.10;0.10;;;15.80;99.90;;;;;;4980079;28;20630;-87
2023/07/17 05:03:55;;;;;;;0.10;0.10;;;15.70;99.90;;;;;;4969495;28;20448;-88
2023/07/17 05:06:21;;;;;;;0.10;0.10;;;15.70;99.90;;;;;;4986553;28;20188;-89
2023/07/17 05:08:46;;;;;;;0.10;0.10;;;15.70;99.90;;;;;;4969117;28;20444;-86
2023/07/17 05:11:12;;;;;;;0.10;0.10;;;15.60;99.90;;;;;;4983968;28;20193;-87
2023/07/17 05:13:37;;;;;;;0.10;0.10;;;15.60;99.90;;;;;;4985805;28;20661;-86
2023/07/17 05:16:03;;;;;;;0.10;0.10;;;15.60;99.90;;;;;;4986818;28;20642;-86
2023/07/17 05:18:28;;;;;;;0.10;0.10;;;15.60;99.90;;;;;;4980763;28;20197;-88
2023/07/17 05:20:54;;;;;;;0.10;0.10;;;15.70;99.90;;;;;;4965341;28;20223;-86
2023/07/17 05:23:19;;;;;;;0.10;0.10;;;15.60;99.90;;;;;;4988029;28;20538;-87
2023/07/17 05:25:53;;;;;;;0.10;0.10;;;15.60;99.90;;;;;;4990081;28;20189;-89
2023/07/17 05:28:19;;;;;;;0.10;0.10;;;15.70;99.90;;;;;;4989972;28;20228;-89
2023/07/17 05:30:45;;;;;;;0.10;0.10;;;15.70;99.90;;;;;;4983099;28;20472;-88
2023/07/17 05:33:11;;;;;;;0.10;0.10;;;15.70;99.90;;;;;;4985436;28;20439;-89
2023/07/17 05:35:37;;;;;;;0.10;0.10;;;15.80;99.90;;;;;;4983474;28;20247;-88
2023/07/17 05:38:03;;;;;;;0.10;0.10;;;15.80;99.90;;;;;;4985582;28;20670;-87
2023/07/17 05:40:28;;;;;;;0.10;0.10;;;16.00;99.90;;;;;;4985826;28;20755;-88
2023/07/17 05:42:54;;;;;;;0.10;0.10;;;16.00;99.90;;;;;;4984424;28;20600;-87
2023/07/17 05:45:19;;;;;;;0.10;0.10;;;16.10;99.90;;;;;;4985836;28;20275;-88
2023/07/17 05:47:45;;;;;;;0.10;0.10;;;16.10;99.90;;;;;;4984178;28;20197;-89
2023/07/17 05:50:11;;;;;;;0.10;0.10;;;16.20;99.90;;;;;;4988305;28;20185;-87
2023/07/17 05:52:36;;;;;;;0.10;0.10;;;16.10;99.90;;;;;;4970620;28;20193;-88
2023/07/17 05:55:03;;;;;;;0.10;0.10;;;16.20;99.90;;;;;;4987756;28;20205;-88
2023/07/17 05:57:28;;;;;;;0.10;0.10;;;16.20;99.90;;;;;;4985859;28;20197;-87
2023/07/17 05:59:54;;;;;;;0.10;0.10;;;16.30;99.90;;;;;;4985406;28;20590;-87
2023/07/17 06:02:20;;;;;;;0.10;0.10;;;16.30;99.90;;;;;;4969363;28;20236;-88
2023/07/17 06:04:45;;;;;;;0.10;0.10;;;16.40;99.90;;;;;;4983265;28;20185;-88
2023/07/17 06:07:13;;;;;;;0.10;0.10;;;16.60;99.90;;;;;;4966104;28;20559;-87
2023/07/17 06:09:38;;;;;;;0.10;0.10;;;16.70;99.90;;;;;;4967445;28;20205;-86
2023/07/17 06:12:04;;;;;;;0.10;0.10;;;16.80;99.90;;;;;;4977549;28;20514;-88
2023/07/17 06:14:30;;;;;;;0.10;0.10;;;16.80;99.90;;;;;;4968935;28;20212;-90
2023/07/17 06:16:55;;;;;;;0.10;0.10;;;16.90;99.90;;;;;;4982853;28;20504;-88
2023/07/17 06:19:21;;;;;;;0.10;0.10;;;16.90;99.90;;;;;;4986238;28;20296;-86
2023/07/17 06:21:46;;;;;;;0.10;0.10;;;17.00;99.90;;;;;;4971776;28;20228;-89
2023/07/17 06:24:12;;;;;;;0.10;0.10;;;17.10;99.90;;;;;;4984162;28;20231;-88
2023/07/17 06:26:38;;;;;;;0.10;0.10;;;17.10;99.90;;;;;;4985273;28;20709;-88
2023/07/17 06:29:05;;;;;;;0.10;0.10;;;17.20;99.90;;;;;;4983980;28;20669;-87
2023/07/17 06:31:31;;;;;;;0.10;0.10;;;17.20;99.90;;;;;;4959612;28;20301;-87
2023/07/17 06:33:56;;;;;;;0.10;0.10;;;17.30;99.90;;;;;;4969901;28;20991;-87
2023/07/17 06:36:22;;;;;;;0.10;0.10;;;17.40;99.90;;;;;;4965973;28;20212;-86
2023/07/17 06:38:47;;;;;;;0.10;0.10;;;17.50;99.90;;;;;;4968581;28;20721;-83
2023/07/17 06:41:14;;;;;;;0.10;0.10;;;17.50;99.90;;;;;;4968194;28;20625;-87
2023/07/17 06:43:39;;;;;;;0.10;0.10;;;17.70;99.90;;;;;;4981896;28;20267;-88
2023/07/17 06:46:05;;;;;;;0.10;0.10;;;17.70;99.90;;;;;;4976915;28;20451;-86
2023/07/17 06:48:30;;;;;;;0.10;0.10;;;17.70;99.90;;;;;;4986131;28;20552;-89
2023/07/17 06:50:56;;;;;;;0.10;0.10;;;17.70;99.90;;;;;;4976561;28;20196;-86
2023/07/17 06:53:21;;;;;;;0.10;0.10;;;17.70;99.90;;;;;;4983835;28;20189;-89
2023/07/17 06:55:55;;;;;;;0.10;0.10;;;17.60;99.90;;;;;;4985363;28;20557;-85
2023/07/17 06:58:21;;;;;;;0.10;0.10;;;17.70;99.90;;;;;;4972829;28;20189;-87
2023/07/17 07:00:46;;;;;;;0.10;0.10;;;17.80;99.90;;;;;;4983815;28;20494;-85
2023/07/17 07:03:12;;;;;;;0.10;0.10;;;18.00;99.90;;;;;;4987299;28;20212;-85
2023/07/17 07:05:37;;;;;;;0.10;0.10;;;18.00;99.90;;;;;;4980135;28;20185;-87
2023/07/17 07:08:03;;;;;;;0.10;0.10;;;18.10;99.90;;;;;;4989761;28;20677;-88
2023/07/17 07:10:28;;;;;;;0.10;0.10;;;18.20;99.90;;;;;;4992386;28;20197;-88
2023/07/17 07:12:54;;;;;;;0.10;0.10;;;18.10;99.90;;;;;;4973711;28;20177;-86
2023/07/17 07:15:19;;;;;;;0.10;0.10;;;18.30;99.90;;;;;;4991723;28;20291;-87
2023/07/17 07:17:45;;;;;;;0.10;0.10;;;18.50;99.90;;;;;;4992157;28;20212;-88
2023/07/17 07:20:11;;;;;;;0.10;0.10;;;18.50;99.90;;;;;;4982862;28;20237;-88
2023/07/17 07:22:36;;;;;;;0.10;0.10;;;18.40;99.90;;;;;;4988856;28;20618;-87
2023/07/17 07:25:02;;;;;;;0.10;0.10;;;18.40;99.90;;;;;;4972806;28;20870;-86
2023/07/17 07:27:30;;;;;;;0.10;0.10;;;18.60;99.90;;;;;;4988606;28;20196;-88
2023/07/17 07:29:56;;;;;;;0.10;0.10;;;18.50;99.90;;;;;;4991266;28;20219;-88
2023/07/17 07:32:21;;;;;;;0.10;0.10;;;18.70;99.90;;;;;;4988048;28;20492;-87
2023/07/17 07:34:47;;;;;;;0.10;0.10;;;18.80;99.90;;;;;;4989098;28;20657;-88
2023/07/17 07:37:13;;;;;;;0.10;0.10;;;18.80;99.90;;;;;;4988708;28;20189;-86
2023/07/17 07:39:38;;;;;;;0.10;0.10;;;19.20;99.90;;;;;;4987656;28;20181;-86
2023/07/17 07:42:04;;;;;;;0.10;0.10;;;19.00;99.90;;;;;;4992438;28;20237;-87
2023/07/17 07:44:29;;;;;;;0.10;0.10;;;19.10;99.90;;;;;;4987021;28;20649;-87
2023/07/17 07:46:55;;;;;;;0.10;0.10;;;19.30;99.90;;;;;;4970911;28;20189;-88
2023/07/17 07:49:20;;;;;;;0.10;0.10;;;19.60;99.90;;;;;;4984880;28;20225;-89
2023/07/17 07:51:46;;;;;;;0.10;0.10;;;19.60;99.90;;;;;;4990537;28;20600;-87
2023/07/17 07:54:11;;;;;;;0.10;0.10;;;20.00;99.90;;;;;;4992182;28;20193;-87
2023/07/17 07:56:37;;;;;;;0.10;0.10;;;20.10;99.90;;;;;;4992890;28;20197;-89
2023/07/17 07:59:02;;;;;;;0.10;0.10;;;19.60;99.90;;;;;;4989804;28;20657;-87
2023/07/17 08:01:28;;;;;;;0.10;0.10;;;19.30;99.90;;;;;;4990358;28;20286;-90
2023/07/17 08:03:53;;;;;;;0.10;0.10;;;18.90;99.90;;;;;;4990210;28;20585;-89
2023/07/17 08:06:19;;;;;;;0.10;0.10;;;19.00;99.90;;;;;;4989470;28;20196;-88
2023/07/17 08:08:44;;;;;;;0.10;0.10;;;19.00;99.90;;;;;;4987528;28;20177;-88
2023/07/17 08:11:10;;;;;;;0.10;0.10;;;18.90;99.90;;;;;;4989104;28;20541;-87
2023/07/17 08:13:35;;;;;;;0.10;0.10;;;18.80;99.90;;;;;;4987479;28;20719;-86
2023/07/17 08:16:01;;;;;;;0.10;0.10;;;19.00;99.90;;;;;;4987301;28;20185;-87
2023/07/17 08:18:26;;;;;;;0.10;0.10;;;19.60;99.90;;;;;;4989641;28;20181;-86
2023/07/17 08:20:51;;;;;;;0.10;0.10;;;19.80;99.90;;;;;;4982957;28;20268;-86
2023/07/17 08:23:27;;;;;;;0.10;0.10;;;20.00;99.90;;;;;;4984664;28;20240;-87
2023/07/17 08:25:53;;;;;;;0.10;0.10;;;19.50;99.90;;;;;;4989571;28;20719;-88
2023/07/17 08:28:18;;;;;;;0.10;0.10;;;19.20;99.90;;;;;;4989573;28;20440;-88
2023/07/17 08:30:44;;;;;;;0.10;0.10;;;18.90;99.90;;;;;;4996362;28;20184;-89
2023/07/17 08:33:11;;;;;;;0.10;0.10;;;18.70;99.90;;;;;;4987866;28;20598;-87
2023/07/17 08:35:36;;;;;;;0.10;0.10;;;19.00;99.90;;;;;;4984545;28;20677;-88
2023/07/17 08:38:02;;;;;;;0.10;0.10;;;19.40;99.90;;;;;;4983488;28;20436;-90
2023/07/17 08:40:28;;;;;;;0.10;0.10;;;19.80;99.90;;;;;;4986879;28;20225;-89
2023/07/17 08:42:58;;;;;;;0.10;0.10;;;19.90;99.90;;;;;;4975639;28;20245;-89
2023/07/17 08:45:26;;;;;;;0.10;0.10;;;19.80;99.90;;;;;;4986787;28;20195;-89
2023/07/17 08:47:53;;;;;;;0.10;0.10;;;19.60;99.90;;;;;;4991272;28;20460;-86
2023/07/17 08:50:19;;;;;;;0.10;0.10;;;19.90;99.90;;;;;;4989168;28;20472;-90
2023/07/17 08:52:47;;;;;;;0.10;0.10;;;19.40;99.90;;;;;;4970674;28;20449;-91
2023/07/17 08:55:12;;;;;;;0.10;0.10;;;19.40;99.90;;;;;;4984851;28;20444;-90
2023/07/17 08:57:39;;;;;;;0.10;0.10;;;20.00;99.90;;;;;;4988731;28;20551;-89
2023/07/17 09:00:05;;;;;;;0.10;0.10;;;20.40;99.90;;;;;;4989601;28;20213;-90
2023/07/17 09:02:32;;;;;;;0.10;0.00;;;20.70;99.90;;;;;;4974285;28;20483;-90
2023/07/17 09:04:58;;;;;;;0.10;0.10;;;21.10;99.90;;;;;;4991216;28;20940;-91
2023/07/17 09:07:23;;;;;;;0.10;0.00;;;20.80;99.90;;;;;;4974379;28;20452;-92
2023/07/17 09:10:21;;;;;;;0.10;0.00;;;20.70;99.90;;;;;;4986508;28;20177;-89
2023/07/17 09:12:58;;;;;;;0.10;0.10;;;20.50;99.90;;;;;;4987430;28;20210;-90
2023/07/17 09:15:25;;;;;;;0.10;0.10;;;20.70;99.90;;;;;;4991202;28;20486;-89
2023/07/17 09:17:51;;;;;;;0.10;0.10;;;21.00;99.90;;;;;;4986285;28;20460;-89
2023/07/17 09:20:19;;;;;;;0.10;0.10;;;21.40;99.90;;;;;;4964480;28;20826;-89
2023/07/17 09:22:45;;;;;;;0.10;0.10;;;21.90;99.90;;;;;;4989992;28;20185;-90
2023/07/17 09:25:11;;;;;;;0.10;0.00;;;22.20;99.90;;;;;;4990166;28;20420;-87
2023/07/17 09:27:45;;;;;;;0.10;0.10;;;22.00;99.90;;;;;;4972881;28;20483;-87
2023/07/17 09:30:12;;;;;;;0.10;0.00;;;22.20;99.90;;;;;;4985178;28;20476;-90
2023/07/17 09:32:38;;;;;;;0.10;0.00;;;22.10;99.90;;;;;;4989834;28;20447;-90
2023/07/17 09:35:05;;;;;;;0.10;0.00;;;21.60;99.90;;;;;;4988663;28;20440;-88
2023/07/17 09:37:32;;;;;;;0.10;0.00;;;21.60;99.90;;;;;;4981551;28;20487;-87
2023/07/17 09:40:09;;;;;;;0.10;0.00;;;21.00;99.90;;;;;;4983823;28;20956;-91
2023/07/17 09:42:35;;;;;;;0.10;0.00;;;20.60;99.90;;;;;;4984821;28;20475;-90
2023/07/17 09:45:02;;;;;;;0.10;0.10;;;20.40;99.90;;;;;;4982296;28;20436;-91
2023/07/17 09:47:29;;;;;;;0.10;0.00;;;20.10;99.90;;;;;;4985087;28;20977;-91
2023/07/17 09:49:56;;;;;;;0.10;0.00;;;20.20;99.90;;;;;;4987852;28;20558;-92
2023/07/17 09:52:21;;;;;;;0.10;0.07;;;20.00;99.90;;;;;;4989977;28;20448;-94
2023/07/17 09:54:51;;;;;;;0.10;0.10;;;19.90;99.90;;;;;;4987266;28;20542;-92
2023/07/17 09:57:27;;;;;;;0.10;0.10;;;19.90;99.90;;;;;;4972466;28;20745;-90
2023/07/17 09:59:55;;;;;;;0.10;0.00;;;19.80;99.90;;;;;;4988461;28;20471;-92
2023/07/17 10:02:23;;;;;;;0.10;0.00;;;20.80;99.90;;;;;;4990924;28;20447;-92
2023/07/17 10:04:53;;;;;;;0.10;0.00;;;21.00;99.90;;;;;;4987370;28;20459;-90
2023/07/17 10:07:19;;;;;;;0.10;0.00;;;20.60;99.90;;;;;;4983715;28;20464;-91
2023/07/17 10:09:48;;;;;;;0.10;0.00;;;20.50;99.90;;;;;;4991106;28;20444;-94
2023/07/17 10:12:15;;;;;;;0.10;0.10;;;21.20;99.90;;;;;;4967196;28;22162;-95
2023/07/17 10:14:42;;;;;;;0.10;0.00;;;21.60;99.90;;;;;;4992472;28;21039;-95
2023/07/17 10:17:28;;;;;;;0.10;0.00;;;22.00;99.90;;;;;;4984145;28;20559;-92
2023/07/17 10:19:56;;;;;;;0.10;0.00;;;22.30;99.90;;;;;;4964950;28;20504;-91
2023/07/17 10:22:27;;;;;;;0.10;0.00;;;21.80;99.90;;;;;;4979047;28;20506;-92
2023/07/17 10:24:53;;;;;;;0.10;0.00;;;21.30;99.90;;;;;;4973137;28;20432;-91
2023/07/17 10:27:43;;;;;;;0.10;0.00;;;20.80;99.90;;;;;;4984495;28;21001;-91
2023/07/17 10:30:29;;;;;;;0.10;0.00;;;20.30;99.90;;;;;;4968912;28;20212;-91
2023/07/17 10:33:14;;;;;;;0.10;0.00;;;19.80;99.90;;;;;;4983856;28;20495;-96
2023/07/17 10:35:47;;;;;;;0.10;0.00;;;19.80;99.90;;;;;;4972931;28;20972;-91
2023/07/17 10:38:25;;;;;;;0.10;0.00;;;19.80;99.90;;;;;;4983289;28;20444;-89
2023/07/17 10:41:05;;;;;;;0.10;0.10;;;20.00;99.90;;;;;;4968041;28;20498;-90
2023/07/17 10:43:33;;;;;;;0.10;0.00;;;19.50;99.90;;;;;;4983580;28;21371;-94
2023/07/17 10:45:59;;;;;;;0.10;0.10;;;19.20;99.90;;;;;;4984320;28;20451;-96
2023/07/17 10:48:26;;;;;;;0.10;0.07;;;19.10;99.90;;;;;;4990374;28;20476;-91
2023/07/17 10:50:54;;;;;;;0.10;0.00;;;19.30;99.90;;;;;;4988158;28;20599;-90
2023/07/17 10:53:20;;;;;;;0.10;0.10;;;19.20;99.90;;;;;;4993371;28;20475;-89
2023/07/17 10:55:46;;;;;;;0.10;0.00;;;19.00;99.90;;;;;;4973419;28;20448;-88
2023/07/17 10:58:12;;;;;;;0.10;0.10;;;18.70;99.90;;;;;;4988782;28;20440;-87
2023/07/17 11:00:42;;;;;;;0.10;0.10;;;18.20;99.90;;;;;;4986650;28;20717;-89
2023/07/17 11:03:09;;;;;;;0.10;0.10;;;18.10;99.90;;;;;;4974654;28;20900;-87
2023/07/17 11:05:42;;;;;;;0.10;0.10;;;18.00;99.90;;;;;;4989198;28;20452;-89
2023/07/17 11:08:09;;;;;;;0.10;0.10;;;17.90;99.90;;;;;;4973786;28;20539;-87
2023/07/17 11:10:36;;;;;;;0.10;0.10;;;17.60;99.90;;;;;;4992740;28;20466;-87
2023/07/17 11:13:03;;;;;;;0.10;0.10;;;17.20;99.90;;;;;;4987498;28;20472;-87
2023/07/17 11:15:32;;;;;;;0.10;0.10;;;17.10;99.90;;;;;;4984543;28;20438;-90
2023/07/17 11:17:59;;;;;;;0.10;0.10;;;17.10;99.90;;;;;;4975048;28;20459;-90
2023/07/17 11:20:25;;;;;;;0.10;0.10;;;17.20;99.90;;;;;;4975176;28;20486;-86
2023/07/17 11:22:50;;;;;;;0.10;0.10;;;17.20;99.90;;;;;;4991408;28;20531;-88
2023/07/17 11:25:16;;;;;;;0.10;0.10;;;17.40;99.90;;;;;;4992505;28;20193;-87
2023/07/17 11:27:42;;;;;;;0.10;0.10;;;17.30;99.90;;;;;;4991032;28;20276;-88
2023/07/17 11:30:16;;;;;;;0.10;0.10;;;17.40;99.90;;;;;;4987564;28;20217;-88
2023/07/17 11:32:42;;;;;;;0.10;0.10;;;17.50;99.90;;;;;;4989636;28;20448;-88
2023/07/17 11:35:08;;;;;;;0.10;0.10;;;17.80;99.90;;;;;;4991568;28;20479;-86
2023/07/17 11:37:37;;;;;;;0.10;0.10;;;18.40;99.90;;;;;;4990398;28;20251;-88
2023/07/17 11:40:07;;;;;;;0.10;0.10;;;18.50;99.90;;;;;;4986993;28;20479;-89
2023/07/17 11:42:58;;;;;;;0.10;0.10;;;18.40;99.90;;;;;;4974431;28;20516;-88
2023/07/17 11:45:25;;;;;;;0.10;0.10;;;18.30;99.90;;;;;;4985531;28;20464;-88
2023/07/17 11:47:55;;;;;;;0.10;0.10;;;18.50;99.90;;;;;;4986847;28;20448;-89
2023/07/17 11:50:26;;;;;;;0.10;0.10;;;18.50;99.90;;;;;;4988164;28;20440;-88
2023/07/17 11:53:10;;;;;;;0.13;0.10;;;18.70;99.90;;;;;;4985672;28;21007;-87
2023/07/17 11:55:37;;;;;;;0.10;0.00;;;19.90;99.90;;;;;;4988435;28;20467;-88
2023/07/17 11:58:16;;;;;;;0.10;0.00;;;21.70;99.90;;;;;;4985773;28;20456;-88
2023/07/17 12:00:46;;;;;;;0.10;0.00;;;22.20;99.90;;;;;;4991424;28;20492;-90
2023/07/17 12:03:11;;;;;;;0.10;0.00;;;21.80;99.90;;;;;;4982728;28;20436;-87
2023/07/17 12:05:38;;;;;;;0.10;0.00;;;22.00;99.90;;;;;;4990775;28;20816;-88
2023/07/17 12:08:04;;;;;;;0.10;0.00;;;21.90;99.90;;;;;;4988077;28;20180;-87
2023/07/17 12:10:30;;;;;;;0.10;0.00;;;22.00;99.90;;;;;;4972406;28;20444;-86
2023/07/17 12:12:56;;;;;;;0.10;0.00;;;21.60;99.90;;;;;;4991887;28;21027;-87
2023/07/17 12:15:25;;;;;;;0.10;0.00;;;22.10;99.90;;;;;;4993355;28;20534;-88
2023/07/17 12:17:51;;;;;;;0.10;0.00;;;22.70;99.90;;;;;;4979728;28;20516;-88
2023/07/17 12:20:18;;;;;;;0.10;0.00;;;23.40;99.90;;;;;;4992321;28;20579;-88
2023/07/17 12:22:45;;;;;;;0.10;0.00;;;24.50;99.90;;;;;;4990585;28;20181;-86
2023/07/17 12:25:11;;;;;;;0.10;0.00;;;23.90;99.90;;;;;;4989625;28;20535;-89
2023/07/17 12:27:36;;;;;;;0.10;0.00;;;24.00;99.90;;;;;;4987013;28;20547;-87
2023/07/17 12:30:02;;;;;;;0.10;0.00;;;24.30;99.90;;;;;;4973931;28;20276;-86
2023/07/17 12:32:28;;;;;;;0.10;0.00;;;24.30;99.90;;;;;;4973070;28;20198;-88
2023/07/17 12:34:53;;;;;;;0.10;0.00;;;23.80;99.90;;;;;;4972854;28;20440;-90
2023/07/17 12:37:19;;;;;;;0.10;0.00;;;23.70;99.90;;;;;;4972679;28;20277;-91
2023/07/17 12:39:45;;;;;;;0.10;0.00;;;22.40;99.90;;;;;;4971976;28;20185;-91
2023/07/17 12:42:11;;;;;;;0.10;0.00;;;22.30;99.90;;;;;;4988234;28;20728;-87
2023/07/17 12:44:37;;;;;;;0.10;0.00;;;22.40;99.90;;;;;;4969510;28;20192;-88
2023/07/17 12:47:03;;;;;;;0.10;0.00;;;22.30;99.90;;;;;;4984758;28;20448;-88